sensor_id;sensor_type;location;lat;lon;timestamp;P1;durP1;ratioP1;P2;durP2;ratioP2
50555;SDS011;36508;52.512;13.450;2023-02-11T00:00:32;41.23;;;29.57;;
50555;SDS011;36508;52.512;13.450;2023-02-11T00:03:05;33.17;;;26.60;;
50555;SDS011;36508;52.512;13.450;2023-02-11T00:05:31;46.80;;;34.50;;
50555;SDS011;36508;52.512;13.450;2023-02-11T00:07:56;49.23;;;33.87;;
50555;SDS011;36508;52.512;13.450;2023-02-11T00:10:25;42.30;;;30.17;;
50555;SDS011;36508;52.512;13.450;2023-02-11T00:12:51;39.63;;;30.17;;
50555;SDS011;36508;52.512;13.450;2023-02-11T00:15:17;44.60;;;30.50;;
50555;SDS011;36508;52.512;13.450;2023-02-11T00:17:42;41.30;;;29.70;;
50555;SDS011;36508;52.512;13.450;2023-02-11T00:20:08;43.77;;;32.30;;
50555;SDS011;36508;52.512;13.450;2023-02-11T00:22:37;41.73;;;31.33;;
50555;SDS011;36508;52.512;13.450;2023-02-11T00:25:02;35.47;;;23.90;;
50555;SDS011;36508;52.512;13.450;2023-02-11T00:27:28;36.03;;;31.97;;
50555;SDS011;36508;52.512;13.450;2023-02-11T00:29:57;45.23;;;33.80;;
50555;SDS011;36508;52.512;13.450;2023-02-11T00:32:24;43.97;;;31.80;;
50555;SDS011;36508;52.512;13.450;2023-02-11T00:34:53;41.43;;;30.00;;
50555;SDS011;36508;52.512;13.450;2023-02-11T00:37:22;38.83;;;28.57;;
50555;SDS011;36508;52.512;13.450;2023-02-11T00:39:48;39.47;;;31.33;;
50555;SDS011;36508;52.512;13.450;2023-02-11T00:42:17;41.17;;;32.03;;
50555;SDS011;36508;52.512;13.450;2023-02-11T00:44:42;34.97;;;29.13;;
50555;SDS011;36508;52.512;13.450;2023-02-11T00:47:08;44.03;;;32.50;;
50555;SDS011;36508;52.512;13.450;2023-02-11T00:49:34;45.77;;;31.20;;
50555;SDS011;36508;52.512;13.450;2023-02-11T00:52:01;42.60;;;26.33;;
50555;SDS011;36508;52.512;13.450;2023-02-11T00:54:32;42.43;;;30.63;;
50555;SDS011;36508;52.512;13.450;2023-02-11T00:57:01;47.73;;;32.03;;
50555;SDS011;36508;52.512;13.450;2023-02-11T00:59:28;41.67;;;30.07;;
50555;SDS011;36508;52.512;13.450;2023-02-11T01:01:53;30.87;;;25.47;;
50555;SDS011;36508;52.512;13.450;2023-02-11T01:04:22;45.10;;;33.30;;
50555;SDS011;36508;52.512;13.450;2023-02-11T01:06:48;45.77;;;30.47;;
50555;SDS011;36508;52.512;13.450;2023-02-11T01:09:14;44.03;;;28.33;;
50555;SDS011;36508;52.512;13.450;2023-02-11T01:11:43;37.30;;;28.80;;
50555;SDS011;36508;52.512;13.450;2023-02-11T01:14:08;33.70;;;29.20;;
50555;SDS011;36508;52.512;13.450;2023-02-11T01:19:11;40.23;;;29.13;;
50555;SDS011;36508;52.512;13.450;2023-02-11T01:21:40;37.60;;;30.20;;
50555;SDS011;36508;52.512;13.450;2023-02-11T01:24:05;40.30;;;30.27;;
50555;SDS011;36508;52.512;13.450;2023-02-11T01:26:31;46.10;;;32.13;;
50555;SDS011;36508;52.512;13.450;2023-02-11T01:28:57;31.07;;;24.70;;
50555;SDS011;36508;52.512;13.450;2023-02-11T01:31:25;33.67;;;29.50;;
50555;SDS011;36508;52.512;13.450;2023-02-11T01:33:51;40.10;;;30.50;;
50555;SDS011;36508;52.512;13.450;2023-02-11T01:36:17;42.00;;;30.70;;
50555;SDS011;36508;52.512;13.450;2023-02-11T01:38:42;42.47;;;31.27;;
50555;SDS011;36508;52.512;13.450;2023-02-11T01:41:10;43.70;;;30.63;;
50555;SDS011;36508;52.512;13.450;2023-02-11T01:43:39;34.87;;;27.53;;
50555;SDS011;36508;52.512;13.450;2023-02-11T01:49:05;35.27;;;27.40;;
50555;SDS011;36508;52.512;13.450;2023-02-11T01:54:12;34.33;;;28.87;;
50555;SDS011;36508;52.512;13.450;2023-02-11T01:57:03;39.03;;;28.00;;
50555;SDS011;36508;52.512;13.450;2023-02-11T02:03:24;39.50;;;28.60;;
50555;SDS011;36508;52.512;13.450;2023-02-11T02:05:32;35.37;;;27.53;;
50555;SDS011;36508;52.512;13.450;2023-02-11T02:11:14;43.70;;;30.97;;
50555;SDS011;36508;52.512;13.450;2023-02-11T02:13:40;41.70;;;31.20;;
50555;SDS011;36508;52.512;13.450;2023-02-11T02:16:15;37.47;;;29.67;;
50555;SDS011;36508;52.512;13.450;2023-02-11T02:35:36;41.70;;;30.77;;
50555;SDS011;36508;52.512;13.450;2023-02-11T02:38:27;36.47;;;25.87;;
50555;SDS011;36508;52.512;13.450;2023-02-11T02:43:31;39.23;;;26.20;;
50555;SDS011;36508;52.512;13.450;2023-02-11T02:48:55;47.03;;;31.93;;
50555;SDS011;36508;52.512;13.450;2023-02-11T02:57:33;43.20;;;34.07;;
50555;SDS011;36508;52.512;13.450;2023-02-11T03:00:22;46.20;;;32.97;;
50555;SDS011;36508;52.512;13.450;2023-02-11T03:06:02;33.00;;;27.23;;
50555;SDS011;36508;52.512;13.450;2023-02-11T03:08:45;52.93;;;33.13;;
50555;SDS011;36508;52.512;13.450;2023-02-11T03:11:16;37.00;;;30.27;;
50555;SDS011;36508;52.512;13.450;2023-02-11T03:13:46;38.33;;;32.60;;
50555;SDS011;36508;52.512;13.450;2023-02-11T03:16:24;42.63;;;33.63;;
50555;SDS011;36508;52.512;13.450;2023-02-11T03:18:52;51.73;;;35.93;;
50555;SDS011;36508;52.512;13.450;2023-02-11T03:21:23;43.50;;;30.60;;
50555;SDS011;36508;52.512;13.450;2023-02-11T03:23:52;41.90;;;31.50;;
50555;SDS011;36508;52.512;13.450;2023-02-11T03:26:39;39.47;;;32.27;;
50555;SDS011;36508;52.512;13.450;2023-02-11T03:34:53;44.43;;;35.57;;
50555;SDS011;36508;52.512;13.450;2023-02-11T03:37:49;35.90;;;28.27;;
50555;SDS011;36508;52.512;13.450;2023-02-11T03:40:22;48.17;;;34.20;;
50555;SDS011;36508;52.512;13.450;2023-02-11T03:42:57;45.00;;;34.00;;
50555;SDS011;36508;52.512;13.450;2023-02-11T03:45:25;47.30;;;35.47;;
50555;SDS011;36508;52.512;13.450;2023-02-11T03:48:03;33.17;;;26.00;;
50555;SDS011;36508;52.512;13.450;2023-02-11T03:50:51;45.27;;;34.97;;
50555;SDS011;36508;52.512;13.450;2023-02-11T03:53:19;42.93;;;34.30;;
50555;SDS011;36508;52.512;13.450;2023-02-11T03:55:46;41.60;;;35.37;;
50555;SDS011;36508;52.512;13.450;2023-02-11T03:58:17;41.80;;;34.97;;
50555;SDS011;36508;52.512;13.450;2023-02-11T04:00:44;41.20;;;32.17;;
50555;SDS011;36508;52.512;13.450;2023-02-11T04:03:10;50.20;;;34.70;;
50555;SDS011;36508;52.512;13.450;2023-02-11T04:05:39;44.67;;;34.53;;
50555;SDS011;36508;52.512;13.450;2023-02-11T04:08:04;42.07;;;33.60;;
50555;SDS011;36508;52.512;13.450;2023-02-11T04:10:31;44.07;;;33.80;;
50555;SDS011;36508;52.512;13.450;2023-02-11T04:12:59;46.40;;;35.20;;
50555;SDS011;36508;52.512;13.450;2023-02-11T04:15:25;49.90;;;36.00;;
50555;SDS011;36508;52.512;13.450;2023-02-11T04:18:00;34.40;;;26.43;;
50555;SDS011;36508;52.512;13.450;2023-02-11T04:20:29;56.93;;;36.27;;
50555;SDS011;36508;52.512;13.450;2023-02-11T04:22:55;34.97;;;29.90;;
50555;SDS011;36508;52.512;13.450;2023-02-11T04:25:26;37.50;;;30.83;;
50555;SDS011;36508;52.512;13.450;2023-02-11T04:27:53;49.23;;;33.20;;
50555;SDS011;36508;52.512;13.450;2023-02-11T04:30:19;51.03;;;36.97;;
50555;SDS011;36508;52.512;13.450;2023-02-11T04:32:44;45.40;;;35.90;;
50555;SDS011;36508;52.512;13.450;2023-02-11T04:35:10;37.23;;;28.27;;
50555;SDS011;36508;52.512;13.450;2023-02-11T04:37:36;50.30;;;33.80;;
50555;SDS011;36508;52.512;13.450;2023-02-11T04:40:02;43.53;;;37.10;;
50555;SDS011;36508;52.512;13.450;2023-02-11T04:42:28;49.60;;;36.23;;
50555;SDS011;36508;52.512;13.450;2023-02-11T04:44:53;49.80;;;35.70;;
50555;SDS011;36508;52.512;13.450;2023-02-11T04:47:22;42.13;;;35.13;;
50555;SDS011;36508;52.512;13.450;2023-02-11T04:49:48;49.37;;;36.57;;
50555;SDS011;36508;52.512;13.450;2023-02-11T04:52:14;50.37;;;40.30;;
50555;SDS011;36508;52.512;13.450;2023-02-11T04:54:40;53.33;;;37.27;;
50555;SDS011;36508;52.512;13.450;2023-02-11T04:57:08;52.10;;;36.80;;
50555;SDS011;36508;52.512;13.450;2023-02-11T04:59:34;55.37;;;42.77;;
50555;SDS011;36508;52.512;13.450;2023-02-11T05:02:03;47.60;;;38.90;;
50555;SDS011;36508;52.512;13.450;2023-02-11T05:04:31;48.93;;;36.10;;
50555;SDS011;36508;52.512;13.450;2023-02-11T05:06:57;56.73;;;42.77;;
50555;SDS011;36508;52.512;13.450;2023-02-11T05:09:23;50.47;;;38.23;;
50555;SDS011;36508;52.512;13.450;2023-02-11T05:11:51;55.20;;;35.13;;
50555;SDS011;36508;52.512;13.450;2023-02-11T05:14:17;59.87;;;40.43;;
50555;SDS011;36508;52.512;13.450;2023-02-11T05:16:46;49.60;;;36.43;;
50555;SDS011;36508;52.512;13.450;2023-02-11T05:19:11;50.97;;;35.47;;
50555;SDS011;36508;52.512;13.450;2023-02-11T05:21:37;52.40;;;38.77;;
50555;SDS011;36508;52.512;13.450;2023-02-11T05:24:09;55.07;;;40.30;;
50555;SDS011;36508;52.512;13.450;2023-02-11T05:26:35;51.40;;;41.40;;
50555;SDS011;36508;52.512;13.450;2023-02-11T05:29:00;48.00;;;38.80;;
50555;SDS011;36508;52.512;13.450;2023-02-11T05:31:32;40.70;;;32.57;;
50555;SDS011;36508;52.512;13.450;2023-02-11T05:33:58;47.97;;;36.57;;
50555;SDS011;36508;52.512;13.450;2023-02-11T05:36:28;55.77;;;42.23;;
50555;SDS011;36508;52.512;13.450;2023-02-11T05:38:54;60.40;;;43.37;;
50555;SDS011;36508;52.512;13.450;2023-02-11T05:41:19;54.30;;;35.03;;
50555;SDS011;36508;52.512;13.450;2023-02-11T05:43:48;47.37;;;34.60;;
50555;SDS011;36508;52.512;13.450;2023-02-11T05:46:15;49.17;;;38.27;;
50555;SDS011;36508;52.512;13.450;2023-02-11T05:48:41;50.90;;;36.57;;
50555;SDS011;36508;52.512;13.450;2023-02-11T05:51:09;50.30;;;39.77;;
50555;SDS011;36508;52.512;13.450;2023-02-11T05:53:35;50.27;;;38.27;;
50555;SDS011;36508;52.512;13.450;2023-02-11T05:56:01;61.30;;;42.97;;
50555;SDS011;36508;52.512;13.450;2023-02-11T05:58:26;71.63;;;45.73;;
50555;SDS011;36508;52.512;13.450;2023-02-11T06:00:52;59.47;;;43.57;;
50555;SDS011;36508;52.512;13.450;2023-02-11T06:03:18;46.43;;;38.07;;
50555;SDS011;36508;52.512;13.450;2023-02-11T06:05:44;59.20;;;44.23;;
50555;SDS011;36508;52.512;13.450;2023-02-11T06:08:13;63.10;;;44.57;;
50555;SDS011;36508;52.512;13.450;2023-02-11T06:10:39;63.60;;;45.37;;
50555;SDS011;36508;52.512;13.450;2023-02-11T06:13:07;53.73;;;41.33;;
50555;SDS011;36508;52.512;13.450;2023-02-11T06:15:33;62.83;;;44.30;;
50555;SDS011;36508;52.512;13.450;2023-02-11T06:17:58;57.97;;;44.87;;
50555;SDS011;36508;52.512;13.450;2023-02-11T06:20:27;45.30;;;34.60;;
50555;SDS011;36508;52.512;13.450;2023-02-11T06:22:53;54.50;;;41.00;;
50555;SDS011;36508;52.512;13.450;2023-02-11T06:25:21;54.10;;;35.87;;
50555;SDS011;36508;52.512;13.450;2023-02-11T06:27:47;60.47;;;42.53;;
50555;SDS011;36508;52.512;13.450;2023-02-11T06:30:13;52.90;;;38.63;;
50555;SDS011;36508;52.512;13.450;2023-02-11T06:32:38;62.70;;;43.43;;
50555;SDS011;36508;52.512;13.450;2023-02-11T06:35:04;59.33;;;42.90;;
50555;SDS011;36508;52.512;13.450;2023-02-11T06:37:30;56.30;;;44.10;;
50555;SDS011;36508;52.512;13.450;2023-02-11T06:39:59;63.97;;;44.60;;
50555;SDS011;36508;52.512;13.450;2023-02-11T06:42:24;64.23;;;48.53;;
50555;SDS011;36508;52.512;13.450;2023-02-11T06:44:50;44.80;;;37.83;;
50555;SDS011;36508;52.512;13.450;2023-02-11T06:47:16;55.73;;;45.60;;
50555;SDS011;36508;52.512;13.450;2023-02-11T06:49:42;58.07;;;42.07;;
50555;SDS011;36508;52.512;13.450;2023-02-11T06:52:10;63.50;;;45.80;;
50555;SDS011;36508;52.512;13.450;2023-02-11T06:54:36;65.73;;;50.67;;
50555;SDS011;36508;52.512;13.450;2023-02-11T06:57:02;62.47;;;44.47;;
50555;SDS011;36508;52.512;13.450;2023-02-11T06:59:27;53.43;;;43.03;;
50555;SDS011;36508;52.512;13.450;2023-02-11T07:01:56;63.30;;;45.47;;
50555;SDS011;36508;52.512;13.450;2023-02-11T07:04:22;68.70;;;48.70;;
50555;SDS011;36508;52.512;13.450;2023-02-11T07:06:59;69.70;;;49.27;;
50555;SDS011;36508;52.512;13.450;2023-02-11T07:09:27;61.57;;;44.10;;
50555;SDS011;36508;52.512;13.450;2023-02-11T07:11:53;69.50;;;51.07;;
50555;SDS011;36508;52.512;13.450;2023-02-11T07:14:20;63.03;;;44.90;;
50555;SDS011;36508;52.512;13.450;2023-02-11T07:16:52;64.00;;;46.27;;
50555;SDS011;36508;52.512;13.450;2023-02-11T07:19:18;58.87;;;43.57;;
50555;SDS011;36508;52.512;13.450;2023-02-11T07:21:44;69.47;;;49.77;;
50555;SDS011;36508;52.512;13.450;2023-02-11T07:24:10;62.90;;;46.60;;
50555;SDS011;36508;52.512;13.450;2023-02-11T07:26:41;63.60;;;45.20;;
50555;SDS011;36508;52.512;13.450;2023-02-11T07:29:10;75.77;;;50.90;;
50555;SDS011;36508;52.512;13.450;2023-02-11T07:31:36;71.80;;;50.90;;
50555;SDS011;36508;52.512;13.450;2023-02-11T07:34:01;60.20;;;49.23;;
50555;SDS011;36508;52.512;13.450;2023-02-11T07:36:31;86.27;;;47.57;;
50555;SDS011;36508;52.512;13.450;2023-02-11T07:38:57;60.40;;;46.47;;
50555;SDS011;36508;52.512;13.450;2023-02-11T07:41:24;62.83;;;44.97;;
50555;SDS011;36508;52.512;13.450;2023-02-11T07:43:50;71.20;;;46.87;;
50555;SDS011;36508;52.512;13.450;2023-02-11T07:46:18;58.00;;;44.00;;
50555;SDS011;36508;52.512;13.450;2023-02-11T07:48:45;51.97;;;32.17;;
50555;SDS011;36508;52.512;13.450;2023-02-11T07:51:15;66.03;;;47.47;;
50555;SDS011;36508;52.512;13.450;2023-02-11T07:53:42;70.93;;;42.00;;
50555;SDS011;36508;52.512;13.450;2023-02-11T07:56:09;45.17;;;36.10;;
50555;SDS011;36508;52.512;13.450;2023-02-11T07:58:35;56.60;;;46.37;;
50555;SDS011;36508;52.512;13.450;2023-02-11T08:01:05;59.73;;;40.90;;
50555;SDS011;36508;52.512;13.450;2023-02-11T08:03:37;61.20;;;45.10;;
50555;SDS011;36508;52.512;13.450;2023-02-11T08:06:04;50.13;;;38.67;;
50555;SDS011;36508;52.512;13.450;2023-02-11T08:08:30;52.83;;;40.33;;
50555;SDS011;36508;52.512;13.450;2023-02-11T08:10:56;70.43;;;49.97;;
50555;SDS011;36508;52.512;13.450;2023-02-11T08:13:22;55.60;;;41.67;;
50555;SDS011;36508;52.512;13.450;2023-02-11T08:15:47;50.50;;;36.97;;
50555;SDS011;36508;52.512;13.450;2023-02-11T08:18:13;67.03;;;48.10;;
50555;SDS011;36508;52.512;13.450;2023-02-11T08:20:39;67.27;;;42.37;;
50555;SDS011;36508;52.512;13.450;2023-02-11T08:23:07;61.83;;;43.30;;
50555;SDS011;36508;52.512;13.450;2023-02-11T08:25:33;52.60;;;39.40;;
50555;SDS011;36508;52.512;13.450;2023-02-11T08:28:02;49.93;;;39.50;;
50555;SDS011;36508;52.512;13.450;2023-02-11T08:30:28;52.20;;;38.80;;
50555;SDS011;36508;52.512;13.450;2023-02-11T08:32:53;66.67;;;44.97;;
50555;SDS011;36508;52.512;13.450;2023-02-11T08:35:22;59.20;;;43.07;;
50555;SDS011;36508;52.512;13.450;2023-02-11T08:37:50;51.87;;;35.33;;
50555;SDS011;36508;52.512;13.450;2023-02-11T08:40:16;73.63;;;49.57;;
50555;SDS011;36508;52.512;13.450;2023-02-11T08:42:42;59.50;;;44.20;;
50555;SDS011;36508;52.512;13.450;2023-02-11T08:45:08;64.40;;;46.10;;
50555;SDS011;36508;52.512;13.450;2023-02-11T08:47:37;55.83;;;41.47;;
50555;SDS011;36508;52.512;13.450;2023-02-11T08:50:03;67.20;;;45.50;;
50555;SDS011;36508;52.512;13.450;2023-02-11T08:52:29;63.30;;;44.10;;
50555;SDS011;36508;52.512;13.450;2023-02-11T08:54:55;54.27;;;39.80;;
50555;SDS011;36508;52.512;13.450;2023-02-11T08:57:44;60.30;;;40.73;;
50555;SDS011;36508;52.512;13.450;2023-02-11T09:00:13;59.53;;;44.27;;
50555;SDS011;36508;52.512;13.450;2023-02-11T09:02:40;63.47;;;44.93;;
50555;SDS011;36508;52.512;13.450;2023-02-11T09:05:10;53.67;;;41.47;;
50555;SDS011;36508;52.512;13.450;2023-02-11T09:07:39;53.17;;;38.47;;
50555;SDS011;36508;52.512;13.450;2023-02-11T09:10:07;59.93;;;40.37;;
50555;SDS011;36508;52.512;13.450;2023-02-11T09:12:36;58.63;;;37.87;;
50555;SDS011;36508;52.512;13.450;2023-02-11T09:15:05;56.23;;;45.30;;
50555;SDS011;36508;52.512;13.450;2023-02-11T09:17:35;68.13;;;42.20;;
50555;SDS011;36508;52.512;13.450;2023-02-11T09:20:01;55.20;;;39.13;;
50555;SDS011;36508;52.512;13.450;2023-02-11T09:22:27;51.30;;;37.30;;
50555;SDS011;36508;52.512;13.450;2023-02-11T09:24:53;49.87;;;39.27;;
50555;SDS011;36508;52.512;13.450;2023-02-11T09:27:19;62.60;;;41.00;;
50555;SDS011;36508;52.512;13.450;2023-02-11T09:29:48;43.03;;;32.10;;
50555;SDS011;36508;52.512;13.450;2023-02-11T09:32:17;46.27;;;37.40;;
50555;SDS011;36508;52.512;13.450;2023-02-11T09:34:42;57.97;;;41.43;;
50555;SDS011;36508;52.512;13.450;2023-02-11T09:37:09;57.07;;;39.33;;
50555;SDS011;36508;52.512;13.450;2023-02-11T09:39:35;62.43;;;40.67;;
50555;SDS011;36508;52.512;13.450;2023-02-11T09:42:18;52.63;;;34.53;;
50555;SDS011;36508;52.512;13.450;2023-02-11T09:45:00;50.93;;;38.93;;
50555;SDS011;36508;52.512;13.450;2023-02-11T09:47:27;46.50;;;37.77;;
50555;SDS011;36508;52.512;13.450;2023-02-11T09:50:06;53.47;;;38.47;;
50555;SDS011;36508;52.512;13.450;2023-02-11T09:52:44;52.27;;;40.77;;
50555;SDS011;36508;52.512;13.450;2023-02-11T09:55:29;46.17;;;38.10;;
50555;SDS011;36508;52.512;13.450;2023-02-11T09:57:59;53.80;;;36.50;;
50555;SDS011;36508;52.512;13.450;2023-02-11T10:00:36;53.50;;;39.40;;
50555;SDS011;36508;52.512;13.450;2023-02-11T10:20:22;48.57;;;30.90;;
50555;SDS011;36508;52.512;13.450;2023-02-11T10:22:53;41.43;;;31.50;;
50555;SDS011;36508;52.512;13.450;2023-02-11T10:25:26;49.20;;;38.50;;
50555;SDS011;36508;52.512;13.450;2023-02-11T10:28:13;53.77;;;35.60;;
50555;SDS011;36508;52.512;13.450;2023-02-11T10:36:29;50.30;;;32.67;;
50555;SDS011;36508;52.512;13.450;2023-02-11T10:38:59;50.70;;;37.43;;
50555;SDS011;36508;52.512;13.450;2023-02-11T10:41:36;50.07;;;38.73;;
50555;SDS011;36508;52.512;13.450;2023-02-11T10:44:20;60.83;;;41.53;;
50555;SDS011;36508;52.512;13.450;2023-02-11T10:46:51;52.03;;;39.57;;
50555;SDS011;36508;52.512;13.450;2023-02-11T10:49:33;54.27;;;39.17;;
50555;SDS011;36508;52.512;13.450;2023-02-11T10:52:14;57.43;;;37.33;;
50555;SDS011;36508;52.512;13.450;2023-02-11T10:54:58;44.20;;;37.70;;
50555;SDS011;36508;52.512;13.450;2023-02-11T10:57:33;52.83;;;37.27;;
50555;SDS011;36508;52.512;13.450;2023-02-11T11:00:07;41.80;;;33.70;;
50555;SDS011;36508;52.512;13.450;2023-02-11T11:02:42;54.63;;;41.87;;
50555;SDS011;36508;52.512;13.450;2023-02-11T11:05:18;57.83;;;39.70;;
50555;SDS011;36508;52.512;13.450;2023-02-11T11:07:51;50.77;;;36.53;;
50555;SDS011;36508;52.512;13.450;2023-02-11T11:10:27;36.87;;;29.67;;
50555;SDS011;36508;52.512;13.450;2023-02-11T11:16:05;51.93;;;37.97;;
50555;SDS011;36508;52.512;13.450;2023-02-11T11:18:34;54.97;;;39.33;;
50555;SDS011;36508;52.512;13.450;2023-02-11T11:21:01;55.67;;;40.20;;
50555;SDS011;36508;52.512;13.450;2023-02-11T11:23:30;47.80;;;36.07;;
50555;SDS011;36508;52.512;13.450;2023-02-11T11:26:01;50.30;;;35.47;;
50555;SDS011;36508;52.512;13.450;2023-02-11T11:28:32;42.70;;;35.03;;
50555;SDS011;36508;52.512;13.450;2023-02-11T11:31:15;49.83;;;35.47;;
50555;SDS011;36508;52.512;13.450;2023-02-11T11:33:44;48.53;;;31.73;;
50555;SDS011;36508;52.512;13.450;2023-02-11T11:36:21;48.70;;;33.23;;
50555;SDS011;36508;52.512;13.450;2023-02-11T11:38:56;49.47;;;33.00;;
50555;SDS011;36508;52.512;13.450;2023-02-11T11:41:28;51.53;;;33.67;;
50555;SDS011;36508;52.512;13.450;2023-02-11T11:44:03;39.63;;;27.40;;
50555;SDS011;36508;52.512;13.450;2023-02-11T11:47:22;45.17;;;34.40;;
50555;SDS011;36508;52.512;13.450;2023-02-11T11:49:55;44.70;;;35.20;;
50555;SDS011;36508;52.512;13.450;2023-02-11T11:58:21;27.90;;;22.17;;
50555;SDS011;36508;52.512;13.450;2023-02-11T12:00:53;41.50;;;29.03;;
50555;SDS011;36508;52.512;13.450;2023-02-11T12:12:24;29.40;;;25.43;;
50555;SDS011;36508;52.512;13.450;2023-02-11T12:18:03;32.57;;;27.00;;
50555;SDS011;36508;52.512;13.450;2023-02-11T12:31:30;33.17;;;25.17;;
50555;SDS011;36508;52.512;13.450;2023-02-11T12:34:27;38.27;;;28.00;;
50555;SDS011;36508;52.512;13.450;2023-02-11T12:40:19;26.87;;;23.40;;
50555;SDS011;36508;52.512;13.450;2023-02-11T12:43:12;29.93;;;24.70;;
50555;SDS011;36508;52.512;13.450;2023-02-11T12:49:13;29.13;;;24.13;;
50555;SDS011;36508;52.512;13.450;2023-02-11T12:52:08;36.33;;;27.10;;
50555;SDS011;36508;52.512;13.450;2023-02-11T12:55:00;34.33;;;26.53;;
50555;SDS011;36508;52.512;13.450;2023-02-11T12:57:33;28.00;;;21.10;;
50555;SDS011;36508;52.512;13.450;2023-02-11T13:00:18;31.33;;;25.43;;
50555;SDS011;36508;52.512;13.450;2023-02-11T13:03:09;26.83;;;23.90;;
50555;SDS011;36508;52.512;13.450;2023-02-11T13:05:41;31.37;;;25.67;;
50555;SDS011;36508;52.512;13.450;2023-02-11T13:08:20;26.27;;;21.57;;
50555;SDS011;36508;52.512;13.450;2023-02-11T13:10:53;30.57;;;23.77;;
50555;SDS011;36508;52.512;13.450;2023-02-11T13:13:30;35.47;;;26.07;;
50555;SDS011;36508;52.512;13.450;2023-02-11T13:16:05;32.50;;;25.13;;
50555;SDS011;36508;52.512;13.450;2023-02-11T13:21:15;32.37;;;28.80;;
50555;SDS011;36508;52.512;13.450;2023-02-11T13:35:27;30.70;;;26.80;;
50555;SDS011;36508;52.512;13.450;2023-02-11T13:37:59;32.17;;;26.30;;
50555;SDS011;36508;52.512;13.450;2023-02-11T13:40:30;40.40;;;29.50;;
50555;SDS011;36508;52.512;13.450;2023-02-11T13:43:04;30.90;;;27.63;;
50555;SDS011;36508;52.512;13.450;2023-02-11T13:45:41;26.07;;;23.37;;
50555;SDS011;36508;52.512;13.450;2023-02-11T13:50:47;33.13;;;29.30;;
50555;SDS011;36508;52.512;13.450;2023-02-11T13:53:17;29.67;;;26.53;;
50555;SDS011;36508;52.512;13.450;2023-02-11T13:55:45;29.53;;;26.53;;
50555;SDS011;36508;52.512;13.450;2023-02-11T14:00:47;30.73;;;26.00;;
50555;SDS011;36508;52.512;13.450;2023-02-11T14:03:22;30.10;;;26.87;;
50555;SDS011;36508;52.512;13.450;2023-02-11T14:06:12;29.83;;;26.80;;
50555;SDS011;36508;52.512;13.450;2023-02-11T14:17:33;28.33;;;24.27;;
50555;SDS011;36508;52.512;13.450;2023-02-11T14:20:00;28.43;;;25.43;;
50555;SDS011;36508;52.512;13.450;2023-02-11T14:22:46;26.53;;;23.60;;
50555;SDS011;36508;52.512;13.450;2023-02-11T14:25:21;27.00;;;24.40;;
50555;SDS011;36508;52.512;13.450;2023-02-11T14:27:53;28.07;;;24.97;;
50555;SDS011;36508;52.512;13.450;2023-02-11T14:33:22;26.43;;;22.87;;
50555;SDS011;36508;52.512;13.450;2023-02-11T14:36:06;26.30;;;21.40;;
50555;SDS011;36508;52.512;13.450;2023-02-11T14:41:40;22.80;;;20.20;;
50555;SDS011;36508;52.512;13.450;2023-02-11T14:44:16;25.90;;;23.37;;
50555;SDS011;36508;52.512;13.450;2023-02-11T14:46:49;24.20;;;21.80;;
50555;SDS011;36508;52.512;13.450;2023-02-11T14:49:23;23.10;;;20.70;;
50555;SDS011;36508;52.512;13.450;2023-02-11T14:51:53;26.00;;;21.83;;
50555;SDS011;36508;52.512;13.450;2023-02-11T14:54:24;23.80;;;19.07;;
50555;SDS011;36508;52.512;13.450;2023-02-11T14:57:04;24.70;;;21.77;;
50555;SDS011;36508;52.512;13.450;2023-02-11T14:59:30;24.53;;;22.03;;
50555;SDS011;36508;52.512;13.450;2023-02-11T15:02:02;23.40;;;20.90;;
50555;SDS011;36508;52.512;13.450;2023-02-11T15:04:43;22.93;;;20.47;;
50555;SDS011;36508;52.512;13.450;2023-02-11T15:07:10;21.40;;;19.10;;
50555;SDS011;36508;52.512;13.450;2023-02-11T15:09:45;22.50;;;20.17;;
50555;SDS011;36508;52.512;13.450;2023-02-11T15:12:18;23.47;;;21.03;;
50555;SDS011;36508;52.512;13.450;2023-02-11T15:14:56;20.90;;;18.80;;
50555;SDS011;36508;52.512;13.450;2023-02-11T15:17:25;22.13;;;19.40;;
50555;SDS011;36508;52.512;13.450;2023-02-11T15:19:56;20.70;;;18.57;;
50555;SDS011;36508;52.512;13.450;2023-02-11T15:22:32;18.03;;;16.33;;
50555;SDS011;36508;52.512;13.450;2023-02-11T15:25:02;19.60;;;16.20;;
50555;SDS011;36508;52.512;13.450;2023-02-11T15:27:45;16.90;;;15.20;;
50555;SDS011;36508;52.512;13.450;2023-02-11T15:32:56;17.93;;;16.10;;
50555;SDS011;36508;52.512;13.450;2023-02-11T15:35:34;15.83;;;14.20;;
50555;SDS011;36508;52.512;13.450;2023-02-11T15:38:08;15.90;;;14.30;;
50555;SDS011;36508;52.512;13.450;2023-02-11T15:40:37;15.10;;;13.60;;
50555;SDS011;36508;52.512;13.450;2023-02-11T15:43:03;14.43;;;13.03;;
50555;SDS011;36508;52.512;13.450;2023-02-11T15:45:35;23.60;;;15.47;;
50555;SDS011;36508;52.512;13.450;2023-02-11T15:50:49;16.40;;;14.70;;
50555;SDS011;36508;52.512;13.450;2023-02-11T15:53:29;17.70;;;13.53;;
50555;SDS011;36508;52.512;13.450;2023-02-11T15:56:19;15.17;;;13.77;;
50555;SDS011;36508;52.512;13.450;2023-02-11T15:58:54;13.90;;;12.60;;
50555;SDS011;36508;52.512;13.450;2023-02-11T16:01:30;14.53;;;13.20;;
50555;SDS011;36508;52.512;13.450;2023-02-11T16:03:58;15.43;;;13.83;;
50555;SDS011;36508;52.512;13.450;2023-02-11T16:06:25;14.83;;;13.33;;
50555;SDS011;36508;52.512;13.450;2023-02-11T16:11:29;15.87;;;14.27;;
50555;SDS011;36508;52.512;13.450;2023-02-11T16:13:59;16.10;;;14.37;;
50555;SDS011;36508;52.512;13.450;2023-02-11T16:16:27;13.17;;;11.77;;
50555;SDS011;36508;52.512;13.450;2023-02-11T16:19:00;15.77;;;14.17;;
50555;SDS011;36508;52.512;13.450;2023-02-11T16:21:28;15.80;;;14.40;;
50555;SDS011;36508;52.512;13.450;2023-02-11T16:24:00;14.87;;;13.53;;
50555;SDS011;36508;52.512;13.450;2023-02-11T16:29:06;15.80;;;14.30;;
50555;SDS011;36508;52.512;13.450;2023-02-11T16:31:39;17.87;;;16.13;;
50555;SDS011;36508;52.512;13.450;2023-02-11T16:36:48;14.37;;;12.97;;
50555;SDS011;36508;52.512;13.450;2023-02-11T16:39:15;14.63;;;13.40;;
50555;SDS011;36508;52.512;13.450;2023-02-11T16:41:41;19.97;;;14.80;;
50555;SDS011;36508;52.512;13.450;2023-02-11T16:44:11;16.93;;;15.30;;
50555;SDS011;36508;52.512;13.450;2023-02-11T16:46:37;14.33;;;13.03;;
50555;SDS011;36508;52.512;13.450;2023-02-11T16:49:23;15.67;;;14.00;;
50555;SDS011;36508;52.512;13.450;2023-02-11T16:51:55;13.10;;;11.80;;
50555;SDS011;36508;52.512;13.450;2023-02-11T16:54:25;10.30;;;9.30;;
50555;SDS011;36508;52.512;13.450;2023-02-11T16:56:54;12.67;;;11.57;;
50555;SDS011;36508;52.512;13.450;2023-02-11T16:59:20;14.40;;;13.10;;
50555;SDS011;36508;52.512;13.450;2023-02-11T17:01:46;11.90;;;10.90;;
50555;SDS011;36508;52.512;13.450;2023-02-11T17:04:23;10.63;;;9.73;;
50555;SDS011;36508;52.512;13.450;2023-02-11T17:06:51;13.10;;;11.90;;
50555;SDS011;36508;52.512;13.450;2023-02-11T17:09:18;12.50;;;11.47;;